Time;durP1;ratioP1;P1;durP2;ratioP2;P2;SDS_P1;SDS_P2;PMS_P1;PMS_P2;Temp;Humidity;BMP_temperature;BMP_pressure;BME280_temperature;BME280_humidity;BME280_pressure;Samples;Min_cycle;Max_cycle;Signal;HPM_P1;HPM_P2
2023/08/04 00:02:12;;;;;;;4.07;2.23;;;;;;;15.29;100.00;97264.25;6208107;28;20713;-44
2023/08/04 00:05:14;;;;;;;3.97;2.50;;;;;;;15.23;100.00;97249.28;6207455;28;20235;-45
2023/08/04 00:08:17;;;;;;;2.23;2.00;;;;;;;15.28;100.00;97254.59;6206556;28;20717;-46
2023/08/04 00:11:19;;;;;;;2.53;1.70;;;;;;;15.16;100.00;97241.53;6206045;28;20233;-47
2023/08/04 00:14:21;;;;;;;1.40;1.30;;;;;;;15.31;100.00;97270.13;6206822;28;20243;-45
2023/08/04 00:17:24;;;;;;;2.40;1.83;;;;;;;15.33;100.00;97272.56;6207452;28;20232;-49
2023/08/04 00:20:27;;;;;;;2.30;1.73;;;;;;;15.31;100.00;97282.75;6207309;28;20232;-45
2023/08/04 00:23:29;;;;;;;2.37;1.80;;;;;;;15.23;100.00;97284.19;6206585;28;20331;-46
2023/08/04 00:26:32;;;;;;;2.23;2.00;;;;;;;15.27;100.00;97300.50;6207193;28;20327;-47
2023/08/04 00:29:35;;;;;;;2.07;1.70;;;;;;;15.28;100.00;97313.66;6206957;28;20228;-47
2023/08/04 00:32:38;;;;;;;5.67;3.50;;;;;;;15.31;100.00;97306.91;6206701;28;20717;-45
2023/08/04 00:35:40;;;;;;;5.50;3.87;;;;;;;15.28;100.00;97310.97;6198288;28;20228;-46
2023/08/04 00:38:42;;;;;;;5.53;3.20;;;;;;;15.17;100.00;97302.19;6172458;28;20256;-45
2023/08/04 00:41:45;;;;;;;2.80;2.50;;;;;;;15.29;100.00;97325.19;6210914;28;20785;-46
2023/08/04 00:44:47;;;;;;;3.40;2.30;;;;;;;15.30;100.00;97319.53;6208664;28;20247;-44
2023/08/04 00:47:52;;;;;;;4.53;2.57;;;;;;;15.28;100.00;97320.91;6207555;28;20236;-46
2023/08/04 00:50:54;;;;;;;2.77;2.13;;;;;;;15.26;100.00;97323.84;6206634;28;20243;-46
2023/08/04 00:53:57;;;;;;;2.10;1.90;;;;;;;15.25;100.00;97345.59;6205324;28;20303;-46
2023/08/04 00:57:00;;;;;;;2.80;2.20;;;;;;;15.24;100.00;97344.81;6202131;28;20374;-48
2023/08/04 01:00:03;;;;;;;2.57;2.30;;;;;;;15.23;100.00;97349.38;6205429;28;20228;-44
2023/08/04 01:03:06;;;;;;;3.20;2.20;;;;;;;15.20;100.00;97333.03;6206000;28;20220;-45
2023/08/04 01:06:15;;;;;;;3.27;2.10;;;;;;;15.19;100.00;97332.22;6202936;28;20231;-44
2023/08/04 01:09:30;;;;;;;2.63;1.60;;;;;;;15.15;100.00;97335.75;6206734;28;20255;-45
2023/08/04 01:12:57;;;;;;;2.80;1.10;;;;;;;15.10;100.00;97320.47;6204348;28;20247;-47
2023/08/04 01:16:04;;;;;;;3.03;1.20;;;;;;;15.05;100.00;97314.34;6187090;28;20236;-43
2023/08/04 01:19:06;;;;;;;1.40;1.20;;;;;;;15.07;100.00;97318.34;6205965;28;20244;-46
2023/08/04 01:22:09;;;;;;;1.03;1.00;;;;;;;15.06;100.00;97321.31;6211385;28;20231;-43
2023/08/04 01:25:12;;;;;;;3.80;2.37;;;;;;;15.04;100.00;97324.28;6205445;28;20278;-47
2023/08/04 01:28:16;;;;;;;4.60;2.40;;;;;;;14.96;100.00;97312.25;6201826;28;20236;-46
2023/08/04 01:31:24;;;;;;;4.77;3.60;;;;;;;14.91;100.00;97301.56;6204293;28;20655;-45
2023/08/04 01:34:28;;;;;;;5.03;3.63;;;;;;;14.88;100.00;97310.19;6200190;28;20255;-46
2023/08/04 01:37:32;;;;;;;4.07;3.10;;;;;;;14.90;100.00;97329.47;6211761;28;20263;-48
2023/08/04 01:40:34;;;;;;;9.07;6.37;;;;;;;14.90;100.00;97331.34;6204036;28;20232;-46
2023/08/04 01:43:38;;;;;;;5.47;4.90;;;;;;;14.89;100.00;97333.25;6205239;28;20228;-45
2023/08/04 01:46:40;;;;;;;6.13;5.53;;;;;;;14.91;100.00;97336.44;6205239;28;20326;-44
2023/08/04 01:49:42;;;;;;;5.27;3.93;;;;;;;14.92;100.00;97345.28;6181542;28;20243;-44
2023/08/04 01:52:45;;;;;;;6.63;3.93;;;;;;;14.77;100.00;97340.81;6205540;28;20740;-45
2023/08/04 01:55:47;;;;;;;3.97;3.10;;;;;;;14.93;100.00;97373.72;6201900;28;20621;-45
2023/08/04 01:58:52;;;;;;;3.00;2.57;;;;;;;14.89;100.00;97362.75;6210530;28;20232;-47
2023/08/04 02:01:55;;;;;;;2.83;1.83;;;;;;;14.91;100.00;97354.41;6206339;28;20240;-44
2023/08/04 02:04:58;;;;;;;3.13;2.10;;;;;;;14.78;100.00;97339.75;6204510;28;20721;-45
2023/08/04 02:08:00;;;;;;;4.63;2.30;;;;;;;14.88;100.00;97365.72;6211259;28;20228;-45
2023/08/04 02:11:05;;;;;;;2.30;1.83;;;;;;;14.87;100.00;97369.44;6211739;28;20592;-46
2023/08/04 02:14:07;;;;;;;3.07;1.63;;;;;;;14.88;100.00;97365.72;6207847;28;20612;-44
2023/08/04 02:17:12;;;;;;;1.63;1.40;;;;;;;14.77;100.00;97346.16;6208873;28;20240;-45
2023/08/04 02:20:14;;;;;;;3.97;1.63;;;;;;;14.83;100.00;97371.91;6210316;28;20235;-46
2023/08/04 02:23:16;;;;;;;2.50;1.50;;;;;;;14.84;100.00;97373.50;6214697;28;20922;-45
2023/08/04 02:26:19;;;;;;;3.10;1.63;;;;;;;14.81;100.00;97376.72;6209584;28;20224;-46
2023/08/04 02:29:21;;;;;;;2.23;1.30;;;;;;;14.81;100.00;97379.41;6208935;28;20598;-46
2023/08/04 02:32:24;;;;;;;3.07;1.50;;;;;;;14.83;100.00;97368.41;6187567;28;20237;-45
2023/08/04 02:35:26;;;;;;;1.80;1.07;;;;;;;14.84;100.00;97370.00;6208692;28;20322;-45
2023/08/04 02:38:29;;;;;;;1.40;1.07;;;;;;;14.84;100.00;97375.38;6199117;28;20239;-45
2023/08/04 02:41:33;;;;;;;1.40;1.30;;;;;;;14.86;100.00;97381.25;6209214;28;20243;-45
2023/08/04 02:44:35;;;;;;;1.20;1.07;;;;;;;14.83;100.00;97389.88;6209343;28;20294;-45
2023/08/04 02:47:38;;;;;;;1.67;1.20;;;;;;;14.81;100.00;97389.31;6209521;28;20240;-47
2023/08/04 02:50:40;;;;;;;1.20;1.10;;;;;;;14.79;100.00;97386.94;6208765;28;22303;-45
2023/08/04 02:53:45;;;;;;;4.97;1.47;;;;;;;14.78;100.00;97382.66;6213346;28;20255;-47
2023/08/04 02:56:49;;;;;;;3.50;1.33;;;;;;;14.77;100.00;97375.66;6211012;28;20236;-48
2023/08/04 02:59:53;;;;;;;1.90;1.10;;;;;;;14.75;100.00;97383.19;6204430;28;20236;-45
2023/08/04 03:02:56;;;;;;;2.03;1.40;;;;;;;14.76;100.00;97384.00;6207118;28;20269;-46
2023/08/04 03:06:01;;;;;;;1.90;1.33;;;;;;;14.74;100.00;97372.75;6208881;28;20239;-47
2023/08/04 03:09:04;;;;;;;2.90;1.27;;;;;;;14.73;100.00;97387.22;6213035;28;20228;-44
2023/08/04 03:12:10;;;;;;;2.67;1.57;;;;;;;14.71;100.00;97390.97;6207036;28;20244;-46
2023/08/04 03:15:13;;;;;;;2.60;1.30;;;;;;;14.70;100.00;97378.66;6207807;28;20267;-44
2023/08/04 03:18:16;;;;;;;1.40;1.00;;;;;;;14.58;100.00;97372.00;6206870;28;20224;-44
2023/08/04 03:21:20;;;;;;;2.07;1.10;;;;;;;14.66;100.00;97393.69;6207962;28;20213;-46
2023/08/04 03:24:23;;;;;;;1.20;0.90;;;;;;;14.67;100.00;97387.25;6219928;28;20212;-47
2023/08/04 03:27:25;;;;;;;1.80;1.10;;;;;;;14.68;100.00;97390.75;6209843;28;20311;-45
2023/08/04 03:30:27;;;;;;;2.17;1.07;;;;;;;14.71;100.00;97368.72;6209589;28;20259;-43
2023/08/04 03:33:30;;;;;;;1.00;0.90;;;;;;;14.71;100.00;97363.38;6209598;28;20304;-44
2023/08/04 03:36:33;;;;;;;1.27;1.13;;;;;;;14.73;100.00;97376.50;6210185;28;20232;-43
2023/08/04 03:39:35;;;;;;;1.27;0.90;;;;;;;14.72;100.00;97375.69;6209780;28;20363;-47
2023/08/04 03:42:38;;;;;;;1.23;1.00;;;;;;;14.68;100.00;97364.72;6209010;28;20224;-46
2023/08/04 03:45:41;;;;;;;3.17;1.20;;;;;;;14.65;100.00;97364.47;6209277;28;20228;-45
2023/08/04 03:48:43;;;;;;;1.33;1.20;;;;;;;14.56;100.00;97350.84;6183710;28;20235;-47
2023/08/04 03:51:45;;;;;;;1.97;1.20;;;;;;;14.54;100.00;97349.53;6209708;28;20231;-45
2023/08/04 03:54:51;;;;;;;1.03;0.93;;;;;;;14.58;100.00;97347.88;6204657;28;20618;-45
2023/08/04 03:57:53;;;;;;;5.33;1.13;;;;;;;14.57;100.00;97340.91;6213860;28;20229;-45
2023/08/04 04:00:56;;;;;;;1.37;1.13;;;;;;;14.50;100.00;97318.97;6213458;28;20363;-45
2023/08/04 04:03:58;;;;;;;1.23;1.13;;;;;;;14.56;100.00;97340.13;6198946;28;20240;-44
2023/08/04 04:07:00;;;;;;;1.63;1.20;;;;;;;14.57;100.00;97336.34;6208161;28;20760;-49
2023/08/04 04:10:03;;;;;;;1.33;1.00;;;;;;;14.57;100.00;97332.88;6208310;28;20229;-45
2023/08/04 04:13:05;;;;;;;2.83;1.37;;;;;;;14.58;100.00;97334.47;6207769;28;20791;-46
2023/08/04 04:16:07;;;;;;;2.50;1.17;;;;;;;14.55;100.00;97335.84;6205900;28;20371;-44
2023/08/04 04:19:09;;;;;;;2.37;1.20;;;;;;;14.56;100.00;97348.16;6208036;28;20235;-47
2023/08/04 04:22:12;;;;;;;1.87;1.23;;;;;;;14.55;100.00;97348.44;6206516;28;20243;-46
2023/08/04 04:25:14;;;;;;;1.30;1.20;;;;;;;14.37;100.00;97310.41;6207806;28;20225;-44
2023/08/04 04:28:16;;;;;;;1.40;1.13;;;;;;;14.57;100.00;97338.22;6208148;28;20378;-45
2023/08/04 04:31:19;;;;;;;1.77;1.20;;;;;;;14.58;100.00;97337.16;6208460;28;20240;-46
2023/08/04 04:34:21;;;;;;;1.47;0.93;;;;;;;14.51;100.00;97323.25;6208641;28;20717;-47
2023/08/04 04:37:23;;;;;;;1.70;1.10;;;;;;;14.63;100.00;97343.31;6207567;28;20382;-46
2023/08/04 04:40:25;;;;;;;1.20;1.03;;;;;;;14.44;100.00;97305.56;6207840;28;20260;-45
2023/08/04 04:43:29;;;;;;;1.00;0.90;;;;;;;14.67;100.00;97348.91;6209250;28;20842;-46
2023/08/04 04:46:31;;;;;;;1.50;1.10;;;;;;;14.62;100.00;97344.38;6207116;28;20290;-48
2023/08/04 04:49:33;;;;;;;2.07;1.10;;;;;;;14.63;100.00;97343.31;6209285;28;20698;-45
2023/08/04 04:52:37;;;;;;;1.63;1.00;;;;;;;14.66;100.00;97344.63;6204376;28;20689;-45
2023/08/04 04:55:39;;;;;;;1.43;1.10;;;;;;;14.74;100.00;97362.03;6207720;28;20909;-44
2023/08/04 04:58:42;;;;;;;1.50;1.03;;;;;;;14.77;100.00;97374.88;6208782;28;20269;-45
2023/08/04 05:01:44;;;;;;;1.40;1.00;;;;;;;14.78;100.00;97381.81;6203902;28;20236;-46
2023/08/04 05:04:47;;;;;;;1.10;1.00;;;;;;;14.79;100.00;97376.22;6206768;28;20298;-46
2023/08/04 05:07:50;;;;;;;1.10;1.00;;;;;;;14.84;100.00;97370.00;6206764;28;20232;-45
2023/08/04 05:10:53;;;;;;;1.90;1.37;;;;;;;14.75;100.00;97339.50;6208299;28;20235;-45
2023/08/04 05:13:55;;;;;;;1.23;1.13;;;;;;;14.85;100.00;97359.00;6206385;28;20244;-44
2023/08/04 05:16:58;;;;;;;1.73;1.10;;;;;;;14.88;100.00;97366.50;6209397;28;20744;-46
2023/08/04 05:20:01;;;;;;;1.00;0.90;;;;;;;14.77;100.00;97348.03;6208111;28;20260;-47
2023/08/04 05:23:03;;;;;;;2.50;1.60;;;;;;;14.96;100.00;97367.78;6194385;28;20241;-45
2023/08/04 05:26:06;;;;;;;3.57;1.30;;;;;;;14.47;100.00;97290.81;6204990;28;20260;-46
2023/08/04 05:29:09;;;;;;;2.03;1.33;;;;;;;14.99;100.00;97369.13;6204623;28;20236;-44
2023/08/04 05:32:12;;;;;;;2.13;1.50;;;;;;;14.95;100.00;97366.19;6209904;28;20216;-47
2023/08/04 05:35:16;;;;;;;3.90;1.53;;;;;;;14.62;100.00;97309.50;6206265;28;20292;-48
2023/08/04 05:38:20;;;;;;;3.47;1.47;;;;;;;14.92;100.00;97351.44;6203264;28;20228;-46
2023/08/04 05:41:22;;;;;;;3.03;1.30;;;;;;;15.00;100.00;97355.44;6203646;28;20236;-44
2023/08/04 05:44:24;;;;;;;1.40;1.20;;;;;;;15.03;100.00;97362.13;6203388;28;20601;-44
2023/08/04 05:47:28;;;;;;;1.37;1.20;;;;;;;15.08;100.00;97373.63;6208897;28;20599;-45
2023/08/04 05:50:30;;;;;;;1.73;1.17;;;;;;;15.16;100.00;97375.72;6204990;28;20283;-45
2023/08/04 05:53:33;;;;;;;2.37;1.30;;;;;;;15.23;100.00;97370.84;6203898;28;20387;-48
2023/08/04 05:56:35;;;;;;;1.77;1.43;;;;;;;15.29;100.00;97382.34;6203788;28;20562;-44
2023/08/04 05:59:37;;;;;;;1.50;1.40;;;;;;;15.34;100.00;97387.66;6203321;28;20255;-47
2023/08/04 06:02:41;;;;;;;1.40;1.30;;;;;;;15.20;100.00;97354.50;6189658;28;20615;-44
2023/08/04 06:05:43;;;;;;;2.93;1.10;;;;;;;15.29;100.00;97371.59;6206221;28;20605;-43
2023/08/04 06:08:46;;;;;;;1.70;1.33;;;;;;;15.05;100.00;97338.50;6205181;28;20305;-45
2023/08/04 06:11:48;;;;;;;2.03;1.30;;;;;;;15.43;100.00;97393.25;6205770;28;20236;-47
2023/08/04 06:14:51;;;;;;;2.10;1.03;;;;;;;15.43;100.00;97393.25;6205322;28;20247;-45
2023/08/04 06:17:53;;;;;;;1.80;1.50;;;;;;;15.34;100.00;97381.50;6202257;28;20370;-45
2023/08/04 06:20:56;;;;;;;2.00;1.50;;;;;;;15.32;100.00;97375.59;6205877;28;20232;-48
2023/08/04 06:23:59;;;;;;;1.93;1.30;;;;;;;15.44;100.00;97409.06;6205181;28;20239;-46
2023/08/04 06:27:03;;;;;;;2.37;1.50;;;;;;;15.44;100.00;97409.06;6201004;28;20232;-46
2023/08/04 06:30:06;;;;;;;2.60;1.40;;;;;;;15.44;100.00;97414.44;6204940;28;20859;-46
2023/08/04 06:33:08;;;;;;;1.67;1.23;;;;;;;15.43;100.00;97414.72;6207677;28;20228;-46
2023/08/04 06:36:11;;;;;;;1.20;1.10;;;;;;;15.49;100.00;97419.78;6201816;28;20240;-46
2023/08/04 06:39:13;;;;;;;1.43;1.10;;;;;;;15.41;100.00;97393.50;6204451;28;20224;-45
2023/08/04 06:42:17;;;;;;;2.10;1.43;;;;;;;15.62;100.00;97421.03;6205632;28;20220;-45
2023/08/04 06:45:19;;;;;;;1.40;1.30;;;;;;;15.68;100.00;97421.81;6187817;28;20654;-44
2023/08/04 06:48:24;;;;;;;2.07;1.47;;;;;;;15.74;100.00;97429.53;6207435;28;20232;-47
2023/08/04 06:51:26;;;;;;;2.43;1.57;;;;;;;15.78;100.00;97429.78;6203398;28;20261;-45
2023/08/04 06:54:29;;;;;;;2.97;1.33;;;;;;;15.72;100.00;97394.13;6181647;28;20232;-47
2023/08/04 06:57:31;;;;;;;2.83;1.47;;;;;;;15.46;100.00;97347.84;6207126;28;20302;-45
2023/08/04 07:00:33;;;;;;;2.70;1.60;;;;;;;15.95;100.00;97407.88;6207811;28;20224;-46
2023/08/04 07:03:36;;;;;;;1.50;1.40;;;;;;;15.95;100.00;97397.91;6192381;28;20244;-46
2023/08/04 07:06:38;;;;;;;1.73;1.57;;;;;;;16.08;100.00;97415.28;6207309;28;20238;-46
2023/08/04 07:09:41;;;;;;;1.93;1.50;;;;;;;16.10;100.00;97418.47;6207008;28;20239;-46
2023/08/04 07:12:44;;;;;;;2.57;1.33;;;;;;;16.14;100.00;97416.03;6208733;28;20262;-46
2023/08/04 07:15:56;;;;;;;3.03;1.40;;;;;;;16.17;100.00;97415.47;6206763;28;20235;-45
2023/08/04 07:18:59;;;;;;;2.43;1.40;;;;;;;16.20;100.00;97414.88;6212899;28;20329;-48
2023/08/04 07:22:01;;;;;;;1.77;1.40;;;;;;;16.24;100.00;97408.66;6209323;28;20225;-46
2023/08/04 07:25:04;;;;;;;2.50;1.60;;;;;;;16.34;100.00;97415.03;6206744;28;20713;-48
2023/08/04 07:28:06;;;;;;;1.80;1.57;;;;;;;16.39;100.00;97423.81;6207241;28;20232;-48
2023/08/04 07:31:09;;;;;;;1.47;1.37;;;;;;;16.43;100.00;97424.06;6206869;28;20331;-45
2023/08/04 07:34:12;;;;;;;2.17;1.50;;;;;;;16.47;100.00;97425.91;6211933;28;20719;-47
2023/08/04 07:37:14;;;;;;;2.33;1.30;;;;;;;16.47;100.00;97419.72;6206560;28;20244;-46
2023/08/04 07:40:16;;;;;;;2.43;1.40;;;;;;;16.42;100.00;97422.47;6202972;28;20721;-45
2023/08/04 07:43:19;;;;;;;2.00;1.57;;;;;;;16.41;100.00;97415.50;6206108;28;20594;-46
2023/08/04 07:46:29;;;;;;;2.43;1.20;;;;;;;16.59;100.00;97433.56;6205727;28;20282;-45
2023/08/04 07:49:31;;;;;;;1.50;1.33;;;;;;;16.67;100.00;97429.44;6211756;28;20236;-48
2023/08/04 07:52:33;;;;;;;3.03;1.30;;;;;;;16.58;100.00;97407.75;6205734;28;20239;-45
2023/08/04 07:55:36;;;;;;;2.70;1.27;;;;;;;16.76;100.00;97423.19;6205368;28;20252;-46
2023/08/04 07:58:39;;;;;;;1.60;1.43;;;;;;;16.89;100.00;97437.00;6206790;28;20244;-48
2023/08/04 08:01:41;;;;;;;1.43;1.20;;;;;;;16.87;100.00;97431.13;6205994;28;20232;-48
2023/08/04 08:04:44;;;;;;;1.30;1.20;;;;;;;16.98;100.00;97430.69;6206811;28;20229;-47
2023/08/04 08:07:47;;;;;;;1.53;1.33;;;;;;;17.15;100.00;97443.66;6205780;28;20240;-52
2023/08/04 08:10:49;;;;;;;3.03;1.30;;;;;;;17.23;100.00;97447.59;6189908;28;20903;-47
2023/08/04 08:13:51;;;;;;;1.70;1.37;;;;;;;17.20;100.00;97432.03;6207107;28;20318;-51
2023/08/04 08:16:54;;;;;;;1.47;1.00;;;;;;;17.39;100.00;97443.59;6202299;28;20240;-50
2023/08/04 08:19:56;;;;;;;1.40;1.17;;;;;;;17.16;100.00;97393.31;6213035;28;20220;-46
2023/08/04 08:22:59;;;;;;;1.30;1.20;;;;;;;17.46;100.00;97433.25;6208079;28;20391;-49
2023/08/04 08:26:03;;;;;;;1.60;1.17;;;;;;;17.38;100.00;97414.25;6204488;28;20233;-46
2023/08/04 08:29:06;;;;;;;1.27;1.20;;;;;;;17.43;100.00;97424.97;6206595;28;20228;-50
2023/08/04 08:32:08;;;;;;;3.97;1.20;;;;;;;17.49;100.00;97424.59;6206765;28;20235;-50
2023/08/04 08:35:10;;;;;;;1.67;1.10;;;;;;;17.50;100.00;97431.59;6205008;28;20259;-48
2023/08/04 08:38:12;;;;;;;1.07;1.00;;;;;;;17.38;100.00;97412.38;6205283;28;20224;-50
2023/08/04 08:41:15;;;;;;;1.20;1.10;;;;;;;17.54;100.00;97443.38;6206485;28;20232;-50
2023/08/04 08:44:18;;;;;;;0.97;0.93;;;;;;;17.47;100.00;97434.84;6206737;28;20235;-49
2023/08/04 08:47:23;;;;;;;1.77;1.30;;;;;;;17.56;100.00;97447.66;6207143;28;20311;-48
2023/08/04 08:50:27;;;;;;;1.30;1.20;;;;;;;17.54;100.00;97438.00;6211019;28;20287;-46
2023/08/04 08:53:31;;;;;;;1.30;1.17;;;;;;;17.49;100.00;97415.72;6192852;28;20323;-50
2023/08/04 08:56:34;;;;;;;2.07;1.20;;;;;;;17.57;100.00;97430.41;6181141;28;20323;-47
2023/08/04 08:59:37;;;;;;;3.03;1.60;;;;;;;17.65;100.00;97448.63;6181894;28;20591;-50
2023/08/04 09:02:39;;;;;;;1.63;1.53;;;;;;;17.69;100.00;97452.31;6180235;28;20236;-47
2023/08/04 09:05:41;;;;;;;2.13;1.43;;;;;;;17.63;100.00;97432.72;6185294;28;20225;-51
2023/08/04 09:08:44;;;;;;;2.20;1.43;;;;;;;17.82;100.00;97456.97;6181163;28;20239;-47
2023/08/04 09:11:47;;;;;;;1.50;1.40;;;;;;;17.86;100.00;97447.22;6180213;28;20233;-49
2023/08/04 09:14:56;;;;;;;2.20;1.63;;;;;;;17.92;100.00;97447.94;6180375;28;20240;-48
2023/08/04 09:17:58;;;;;;;2.03;1.47;;;;;;;18.08;100.00;97454.69;6180093;28;20230;-51
2023/08/04 09:21:11;;;;;;;1.80;1.27;;;;;;;18.17;100.00;97444.81;6182200;28;20317;-50
2023/08/04 09:24:15;;;;;;;1.60;1.30;;;;;;;18.13;100.00;97427.63;6182441;28;20228;-48
2023/08/04 09:27:34;;;;;;;1.43;1.33;;;;;;;18.39;100.00;97444.16;6179077;28;20244;-49
2023/08/04 09:31:06;;;;;;;2.57;1.63;;;;;;;18.46;100.00;97449.94;6177730;28;20226;-49
2023/08/04 09:34:10;;;;;;;2.77;1.77;;;;;;;18.38;100.00;97426.38;6169609;28;20229;-51
2023/08/04 09:37:15;;;;;;;2.37;1.37;;;;;;;18.48;100.00;97433.47;6183935;28;20734;-51
2023/08/04 09:40:20;;;;;;;1.60;1.33;;;;;;;18.58;100.00;97432.50;6168392;28;20752;-50
2023/08/04 09:43:22;;;;;;;2.93;1.53;;;;;;;18.60;100.00;97447.25;6180248;28;20774;-51
2023/08/04 09:46:24;;;;;;;2.33;1.10;;;;;;;18.58;100.00;97441.38;6179690;28;20229;-51
2023/08/04 09:49:27;;;;;;;1.97;1.20;;;;;;;18.63;100.00;97440.47;6177442;28;20248;-51
2023/08/04 09:52:30;;;;;;;1.60;1.07;;;;;;;18.67;100.00;97444.16;6172211;28;20240;-51
2023/08/04 09:55:33;;;;;;;1.40;0.80;;;;;;;18.65;100.00;97446.38;6182917;28;20603;-51
2023/08/04 09:58:36;;;;;;;1.53;1.20;;;;;;;18.57;100.00;97439.78;6180416;28;20225;-52
2023/08/04 10:01:40;;;;;;;2.80;1.50;;;;;;;18.39;100.00;97430.66;6182912;28;20822;-49
2023/08/04 10:04:44;;;;;;;2.80;1.40;;;;;;;18.40;100.00;97453.03;6181889;28;20291;-50
2023/08/04 10:07:46;;;;;;;1.63;1.10;;;;;;;18.31;100.00;97467.19;6187949;28;20229;-51
2023/08/04 10:10:50;;;;;;;2.07;1.00;;;;;;;18.14;100.00;97448.09;6188216;28;20236;-52
2023/08/04 10:13:55;;;;;;;1.83;1.20;;;;;;;18.19;100.00;97483.06;6183429;28;20239;-50
2023/08/04 10:16:58;;;;;;;1.93;1.17;;;;;;;18.15;100.00;97483.94;6180380;28;20727;-49
2023/08/04 10:20:07;;;;;;;2.33;1.30;;;;;;;18.05;100.00;97484.91;6182782;28;20228;-49
2023/08/04 10:23:24;;;;;;;1.80;1.00;;;;;;;18.04;100.00;97494.91;6178485;28;20225;-49
2023/08/04 10:26:43;;;;;;;1.53;1.30;;;;;;;18.05;100.00;97495.69;6176953;28;20226;-49
2023/08/04 10:30:00;;;;;;;1.57;1.20;;;;;;;18.08;100.00;97492.44;6186101;28;20240;-50
2023/08/04 10:33:12;;;;;;;2.07;1.20;;;;;;;18.10;100.00;97492.13;6184547;28;20602;-46
2023/08/04 10:36:16;;;;;;;1.20;0.97;;;;;;;18.11;100.00;97489.13;6187704;28;20323;-50
2023/08/04 10:39:30;;;;;;;1.00;1.00;;;;;;;18.14;100.00;97482.34;6184901;28;20221;-52
2023/08/04 10:42:57;;;;;;;1.10;0.83;;;;;;;18.15;100.00;97484.75;6181943;28;20373;-51
2023/08/04 10:46:05;;;;;;;1.10;1.00;;;;;;;18.15;100.00;97483.94;6197456;28;20230;-50
2023/08/04 10:49:08;;;;;;;1.57;1.17;;;;;;;18.14;100.00;97468.88;6178681;28;20233;-50
2023/08/04 10:52:13;;;;;;;1.17;1.03;;;;;;;18.15;100.00;97465.88;6187612;28;20241;-51
2023/08/04 10:55:15;;;;;;;1.63;1.20;;;;;;;18.15;100.00;97448.91;6208354;28;20263;-50
2023/08/04 10:58:17;;;;;;;1.20;1.10;;;;;;;18.02;100.00;97435.06;6205195;28;20244;-50
2023/08/04 11:01:19;;;;;;;1.43;0.93;;;;;;;18.18;100.00;97467.19;6209307;28;21048;-50
2023/08/04 11:04:22;;;;;;;1.37;0.90;;;;;;;18.19;100.00;97472.28;6207317;28;20779;-51
2023/08/04 11:07:26;;;;;;;2.00;1.10;;;;;;;18.21;100.00;97459.28;6205205;28;20603;-53
2023/08/04 11:10:28;;;;;;;1.50;1.20;;;;;;;18.24;100.00;97456.00;6209790;28;20225;-56
2023/08/04 11:13:30;;;;;;;2.20;1.40;;;;;;;18.29;100.00;97447.03;6208828;28;20232;-53
2023/08/04 11:16:35;;;;;;;2.23;1.10;;;;;;;18.40;100.00;97439.56;6210007;28;20240;-52
2023/08/04 11:19:38;;;;;;;2.17;1.10;;;;;;;18.50;100.00;97444.75;6209510;28;20718;-55
2023/08/04 11:22:45;;;;;;;1.60;1.10;;;;;;;18.58;100.00;97430.59;6213233;28;20228;-54
2023/08/04 11:25:47;;;;;;;3.90;1.27;;;;;;;18.65;100.00;97412.09;6205052;28;20745;-54
2023/08/04 11:28:50;;;;;;;2.20;1.37;;;;;;;18.73;100.00;97411.41;6210218;28;20385;-54
2023/08/04 11:31:53;;;;;;;2.87;1.17;;;;;;;18.78;100.00;97419.41;6208235;28;20229;-53
2023/08/04 11:34:57;;;;;;;2.43;1.60;;;;;;;18.80;100.00;97452.28;6206412;28;20228;-53
2023/08/04 11:38:00;;;;;;;1.43;1.10;;;;;;;18.80;100.00;97467.69;6217278;28;20359;-53
2023/08/04 11:41:03;;;;;;;2.23;1.40;;;;;;;18.68;100.00;97449.31;6208750;28;20251;-53
2023/08/04 11:44:05;;;;;;;1.53;1.30;;;;;;;18.69;100.00;97442.00;6202773;28;20247;-55
2023/08/04 11:47:09;;;;;;;1.73;1.20;;;;;;;18.78;100.00;97472.59;6207196;28;20224;-53
2023/08/04 11:50:12;;;;;;;3.73;1.40;;;;;;;18.74;100.00;97480.47;6207530;28;20236;-53
2023/08/04 11:53:15;;;;;;;2.30;1.50;;;;;;;18.53;100.00;97461.16;6206599;28;20764;-55
2023/08/04 11:56:18;;;;;;;1.13;1.03;;;;;;;18.63;100.00;97486.34;6206054;28;20244;-53
2023/08/04 11:59:46;;;;;;;1.70;1.13;;;;;;;18.59;100.00;97486.13;6207314;28;20316;-54
2023/08/04 12:03:02;;;;;;;1.90;1.07;;;;;;;18.58;100.00;97489.16;6205120;28;20323;-54
2023/08/04 12:06:14;;;;;;;1.00;0.90;;;;;;;18.56;100.00;97486.72;6204244;28;20727;-53
2023/08/04 12:09:18;;;;;;;1.50;0.93;;;;;;;18.53;100.00;97490.84;6210201;28;20232;-55
2023/08/04 12:12:36;;;;;;;1.17;1.00;;;;;;;18.51;100.00;97497.59;6205374;28;20297;-54
2023/08/04 12:15:54;;;;;;;0.90;0.90;;;;;;;18.46;100.00;97493.09;6205791;28;20632;-55
2023/08/04 12:19:06;;;;;;;1.00;0.90;;;;;;;18.37;100.00;97497.56;6203417;28;20228;-54
2023/08/04 12:22:08;;;;;;;0.93;0.90;;;;;;;18.44;100.00;97505.31;6175389;28;20241;-56
2023/08/04 12:25:13;;;;;;;1.90;1.10;;;;;;;18.36;100.00;97504.06;6184252;28;20240;-56
2023/08/04 12:28:15;;;;;;;16.33;13.40;;;;;;;18.31;100.00;97513.03;6193183;28;20233;-55
2023/08/04 12:31:19;;;;;;;2.07;1.30;;;;;;;18.28;100.00;97510.16;6202005;28;20327;-51
2023/08/04 12:34:22;;;;;;;1.93;1.10;;;;;;;18.26;100.00;97515.84;6207865;28;20232;-52
2023/08/04 12:37:25;;;;;;;2.87;1.30;;;;;;;18.14;100.00;97503.94;6178560;28;20228;-52
2023/08/04 12:40:28;;;;;;;1.00;0.77;;;;;;;18.24;100.00;97528.03;6210736;28;20208;-54
2023/08/04 12:43:30;;;;;;;1.97;1.20;;;;;;;18.23;100.00;97521.84;6206999;28;20247;-53
2023/08/04 12:46:33;;;;;;;2.00;1.20;;;;;;;18.23;100.00;97526.44;6207123;28;20236;-53
2023/08/04 12:49:36;;;;;;;1.53;1.23;;;;;;;18.11;100.00;97515.28;6202763;28;20733;-52
2023/08/04 12:52:38;;;;;;;3.13;1.10;;;;;;;17.95;100.00;97503.97;6211001;28;20240;-53
2023/08/04 12:55:40;;;;;;;1.27;0.80;;;;;;;17.86;100.00;97494.94;6212017;28;20236;-53
2023/08/04 12:58:43;;;;;;;1.00;0.83;;;;;;;17.77;100.00;97498.28;6211541;28;20236;-53
2023/08/04 13:01:45;;;;;;;1.83;1.10;;;;;;;17.74;100.00;97495.38;6204778;28;20236;-54
2023/08/04 13:04:48;;;;;;;4.10;1.10;;;;;;;17.63;100.00;97483.91;6208405;28;20236;-54
2023/08/04 13:07:51;;;;;;;1.47;0.90;;;;;;;17.48;100.00;97470.66;6203727;28;20245;-54
2023/08/04 13:10:53;;;;;;;2.87;1.00;;;;;;;17.31;100.00;97462.31;6210549;28;20227;-53
2023/08/04 13:13:56;;;;;;;1.73;0.73;;;;;;;17.10;100.00;97461.78;6204755;28;20228;-55
2023/08/04 13:16:58;;;;;;;1.23;0.80;;;;;;;17.00;100.00;97460.03;6193291;28;20314;-52
2023/08/04 13:20:00;;;;;;;1.00;0.70;;;;;;;16.95;100.00;97478.91;6206051;28;20231;-53
2023/08/04 13:23:03;;;;;;;2.97;0.97;;;;;;;16.92;100.00;97501.00;6203559;28;20244;-53
2023/08/04 13:26:07;;;;;;;2.50;0.90;;;;;;;16.91;100.00;97499.41;6208170;28;20725;-56
2023/08/04 13:29:10;;;;;;;2.40;1.53;;;;;;;16.84;100.00;97488.97;6193138;28;21079;-50
2023/08/04 13:32:13;;;;;;;1.77;1.37;;;;;;;16.80;100.00;97485.28;6180676;28;20239;-53
2023/08/04 13:35:15;;;;;;;3.33;1.10;;;;;;;16.62;100.00;97459.09;6205352;28;20233;-54
2023/08/04 13:38:18;;;;;;;1.23;0.90;;;;;;;16.63;100.00;97480.31;6205259;28;20240;-53
2023/08/04 13:41:21;;;;;;;2.83;1.23;;;;;;;16.69;100.00;97494.50;6196948;28;20236;-53
2023/08/04 13:44:24;;;;;;;2.20;1.10;;;;;;;16.79;100.00;97509.75;6193107;28;20220;-54
2023/08/04 13:47:29;;;;;;;1.00;0.70;;;;;;;16.63;100.00;97498.34;6209553;28;20235;-48
2023/08/04 13:50:59;;;;;;;0.70;0.70;;;;;;;16.85;100.00;97530.97;6209787;28;20689;-53
2023/08/04 13:54:42;;;;;;;2.07;0.73;;;;;;;16.86;100.00;97539.84;6162669;28;20323;-51
2023/08/04 13:57:44;;;;;;;3.33;1.03;;;;;;;16.81;100.00;97547.97;6178947;28;20244;-52
2023/08/04 14:01:03;;;;;;;1.33;0.87;;;;;;;16.81;100.00;97547.97;6178971;28;20260;-52
2023/08/04 14:04:05;;;;;;;3.83;1.83;;;;;;;16.85;100.00;97547.09;6179938;28;20249;-53
2023/08/04 14:07:07;;;;;;;1.50;0.90;;;;;;;16.86;100.00;97537.94;6179405;28;20229;-53
2023/08/04 14:10:14;;;;;;;1.23;0.97;;;;;;;16.82;100.00;97528.03;6182421;28;20225;-56
2023/08/04 14:13:20;;;;;;;1.30;0.87;;;;;;;16.82;100.00;97534.22;6179126;28;20227;-57
2023/08/04 14:16:25;;;;;;;1.20;0.90;;;;;;;16.86;100.00;97534.44;6170600;28;20240;-57